createdAt,value
2018-12-04T00:00:05.235Z,10.40
2018-12-04T00:02:33.684Z,10.40
2018-12-04T00:05:11.768Z,10.30
2018-12-04T00:07:40.207Z,10.20
2018-12-04T00:10:08.817Z,10.20
2018-12-04T00:12:37.236Z,10.10
2018-12-04T00:15:05.669Z,10.10
2018-12-04T00:17:34.111Z,10.20
2018-12-04T00:20:02.562Z,10.10
2018-12-04T00:22:31.004Z,10.10
2018-12-04T00:24:59.406Z,10.10
2018-12-04T00:27:27.843Z,10.00
2018-12-04T00:29:56.291Z,10.00
2018-12-04T00:32:24.754Z,10.00
2018-12-04T00:34:54.799Z,10.00
2018-12-04T00:37:23.236Z,10.10
2018-12-04T00:39:51.684Z,10.10
2018-12-04T00:42:20.096Z,10.10
2018-12-04T00:44:48.511Z,10.10
2018-12-04T00:47:16.953Z,10.10
2018-12-04T00:49:45.394Z,10.00
2018-12-04T00:52:13.835Z,10.00
2018-12-04T00:54:42.307Z,10.00
2018-12-04T00:57:10.741Z,10.00
2018-12-04T00:59:39.186Z,9.90
2018-12-04T01:02:07.730Z,9.90
2018-12-04T01:04:36.143Z,9.90
2018-12-04T01:07:04.591Z,9.90
2018-12-04T01:09:33.014Z,9.90
2018-12-04T01:12:01.464Z,9.90
2018-12-04T01:14:29.916Z,10.00
2018-12-04T01:16:58.362Z,9.90
2018-12-04T01:19:26.807Z,9.90
2018-12-04T01:21:55.260Z,9.90
2018-12-04T01:24:23.702Z,9.80
2018-12-04T01:26:52.153Z,9.80
2018-12-04T01:29:20.587Z,9.80
2018-12-04T01:31:49.062Z,9.80
2018-12-04T01:34:17.469Z,9.80
2018-12-04T01:36:45.947Z,9.70
2018-12-04T01:39:14.387Z,9.70
2018-12-04T01:41:42.865Z,9.70
2018-12-04T01:44:11.279Z,9.70
2018-12-04T01:46:39.711Z,9.70
2018-12-04T01:49:08.190Z,9.80
2018-12-04T01:51:36.726Z,9.80
2018-12-04T01:54:05.165Z,9.80
2018-12-04T01:56:33.572Z,9.80
2018-12-04T01:59:02.046Z,9.80
2018-12-04T02:01:30.471Z,9.80
2018-12-04T02:04:00.943Z,9.90
2018-12-04T02:06:29.379Z,9.80
2018-12-04T02:08:57.823Z,9.80
2018-12-04T02:11:26.258Z,9.90
2018-12-04T02:13:54.735Z,9.90
2018-12-04T02:16:23.245Z,9.90
2018-12-04T02:18:51.795Z,9.90
2018-12-04T02:21:20.248Z,9.80
2018-12-04T02:23:48.674Z,9.90
2018-12-04T02:26:17.109Z,9.90
2018-12-04T02:28:45.539Z,9.90
2018-12-04T02:31:13.972Z,9.90
2018-12-04T02:33:42.407Z,9.90
2018-12-04T02:36:10.856Z,10.00
2018-12-04T02:38:39.348Z,9.90
2018-12-04T02:41:07.872Z,10.00
2018-12-04T02:43:36.329Z,10.00
2018-12-04T02:46:05.240Z,10.10
2018-12-04T02:48:33.895Z,10.10
2018-12-04T02:51:02.367Z,10.10
2018-12-04T02:53:30.787Z,10.20
2018-12-04T02:55:59.262Z,10.20
2018-12-04T02:58:27.684Z,10.30
2018-12-04T03:00:56.091Z,10.30
2018-12-04T03:03:24.531Z,10.40
2018-12-04T03:05:52.972Z,10.30
2018-12-04T03:08:21.401Z,10.30
2018-12-04T03:10:49.848Z,10.10
2018-12-04T03:13:18.300Z,10.10
2018-12-04T03:15:46.747Z,10.10
2018-12-04T03:18:15.182Z,10.00
2018-12-04T03:20:43.647Z,9.90
2018-12-04T03:23:12.087Z,9.90
2018-12-04T03:25:40.554Z,9.80
2018-12-04T03:28:09.062Z,9.80
2018-12-04T03:30:37.524Z,9.80
2018-12-04T03:33:05.952Z,9.80
2018-12-04T03:35:34.378Z,9.80
2018-12-04T03:38:02.797Z,9.80
2018-12-04T03:40:31.295Z,9.80
2018-12-04T03:42:59.727Z,9.80
2018-12-04T03:45:28.163Z,9.80
2018-12-04T03:47:56.604Z,9.80
2018-12-04T03:50:25.106Z,9.80
2018-12-04T03:52:53.690Z,9.80
2018-12-04T03:55:22.123Z,9.80
2018-12-04T03:57:50.546Z,9.80
2018-12-04T04:00:18.969Z,9.80
2018-12-04T04:02:47.375Z,9.80
2018-12-04T04:05:17.835Z,9.80
2018-12-04T04:07:46.275Z,9.80
2018-12-04T04:10:14.715Z,9.80
2018-12-04T04:12:43.151Z,9.80
2018-12-04T04:15:11.616Z,9.80
2018-12-04T04:17:40.035Z,9.80
2018-12-04T04:20:08.442Z,9.80
2018-12-04T04:22:36.894Z,9.80
2018-12-04T04:25:05.328Z,9.70
2018-12-04T04:27:33.787Z,9.70
2018-12-04T04:30:02.278Z,9.70
2018-12-04T04:32:30.715Z,9.60
2018-12-04T04:34:59.175Z,9.60
2018-12-04T04:37:27.607Z,9.50
2018-12-04T04:39:56.099Z,9.50
2018-12-04T04:42:24.567Z,9.50
2018-12-04T04:44:53.024Z,9.50
2018-12-04T04:47:21.463Z,9.50
2018-12-04T04:49:49.904Z,9.50
2018-12-04T04:52:18.358Z,9.50
2018-12-04T04:54:46.807Z,9.50
2018-12-04T04:57:15.220Z,9.40
2018-12-04T04:59:43.664Z,9.40
2018-12-04T05:02:12.108Z,9.40
2018-12-04T05:04:40.517Z,9.30
2018-12-04T05:07:08.957Z,9.30
2018-12-04T05:09:37.396Z,9.20
2018-12-04T05:12:05.844Z,9.20
2018-12-04T05:14:34.296Z,9.20
2018-12-04T05:17:02.735Z,9.10
2018-12-04T05:19:31.179Z,9.10
2018-12-04T05:21:59.630Z,9.10
2018-12-04T05:24:28.128Z,9.00
2018-12-04T05:26:56.565Z,9.00
2018-12-04T05:29:25.017Z,9.00
2018-12-04T05:31:53.471Z,9.00
2018-12-04T05:34:21.900Z,8.90
2018-12-04T05:36:50.352Z,9.00
2018-12-04T05:39:18.782Z,9.00
2018-12-04T05:41:47.183Z,8.90
2018-12-04T05:44:15.641Z,9.00
2018-12-04T05:46:44.043Z,9.00
2018-12-04T05:49:12.475Z,9.00
2018-12-04T05:51:40.885Z,9.00
2018-12-04T05:54:14.110Z,9.00
2018-12-04T05:56:43.178Z,9.10
2018-12-04T05:59:12.076Z,9.10
2018-12-04T06:01:40.523Z,9.10
2018-12-04T06:04:09.125Z,9.10
2018-12-04T06:06:37.603Z,9.10
2018-12-04T06:09:07.628Z,9.10
2018-12-04T06:11:36.058Z,9.00
2018-12-04T06:14:04.490Z,9.00
2018-12-04T06:16:32.915Z,9.00
2018-12-04T06:19:01.383Z,8.90
2018-12-04T06:21:29.936Z,8.90
2018-12-04T06:23:58.434Z,8.80
2018-12-04T06:26:26.890Z,8.80
2018-12-04T06:28:55.459Z,8.80
2018-12-04T06:31:23.925Z,8.70
2018-12-04T06:33:52.352Z,8.70
2018-12-04T06:36:20.760Z,8.70
2018-12-04T06:38:49.195Z,8.70
2018-12-04T06:41:17.706Z,8.70
2018-12-04T06:43:46.184Z,8.70
2018-12-04T06:46:14.626Z,8.70
2018-12-04T06:48:43.274Z,8.70
2018-12-04T06:51:12.092Z,8.70
2018-12-04T06:53:40.752Z,8.60
2018-12-04T06:56:09.442Z,8.70
2018-12-04T06:58:38.049Z,8.70
2018-12-04T07:01:06.824Z,8.60
2018-12-04T07:03:35.481Z,8.60
2018-12-04T07:06:04.214Z,8.40
2018-12-04T07:08:32.904Z,8.40
2018-12-04T07:11:03.700Z,8.20
2018-12-04T07:13:32.526Z,8.20
2018-12-04T07:16:01.106Z,8.20
2018-12-04T07:18:29.640Z,8.00
2018-12-04T07:20:58.439Z,7.90
2018-12-04T07:23:28.034Z,7.80
2018-12-04T07:25:56.696Z,7.60
2018-12-04T07:28:25.268Z,7.50
2018-12-04T07:30:53.948Z,7.50
2018-12-04T07:33:22.704Z,7.40
2018-12-04T07:35:51.343Z,7.40
2018-12-04T07:38:20.023Z,7.30
2018-12-04T07:40:48.741Z,7.20
2018-12-04T07:43:17.308Z,7.00
2018-12-04T07:45:46.013Z,6.90
2018-12-04T07:48:14.598Z,6.80
2018-12-04T07:50:43.305Z,6.80
2018-12-04T07:53:11.852Z,6.70
2018-12-04T07:55:42.556Z,6.70
2018-12-04T07:58:11.290Z,6.70
2018-12-04T08:00:40.010Z,6.60
2018-12-04T08:03:08.740Z,6.60
2018-12-04T08:05:37.480Z,6.60
2018-12-04T08:08:06.432Z,6.60
2018-12-04T08:10:35.031Z,6.60
2018-12-04T08:13:03.779Z,6.70
2018-12-04T08:15:32.556Z,6.70
2018-12-04T08:18:01.474Z,6.70
2018-12-04T08:20:30.248Z,6.80
2018-12-04T08:22:58.843Z,6.80
2018-12-04T08:25:27.487Z,6.80
2018-12-04T08:27:56.332Z,6.90
2018-12-04T08:30:25.113Z,6.80
2018-12-04T08:32:53.863Z,6.80
2018-12-04T08:35:23.316Z,6.80
2018-12-04T08:37:52.088Z,6.80
2018-12-04T08:40:21.022Z,6.70
2018-12-04T08:42:49.796Z,6.80
2018-12-04T08:45:18.737Z,6.90
2018-12-04T08:47:47.299Z,6.90
2018-12-04T08:50:15.917Z,6.90
2018-12-04T08:52:44.614Z,6.80
2018-12-04T08:55:13.324Z,6.90
2018-12-04T08:57:41.894Z,7.00
2018-12-04T09:00:10.579Z,7.10
2018-12-04T09:02:39.413Z,7.20
2018-12-04T09:05:08.875Z,7.20
2018-12-04T09:07:37.678Z,7.20
2018-12-04T09:10:06.828Z,7.40
2018-12-04T09:12:36.573Z,7.40
2018-12-04T09:15:06.141Z,7.40
2018-12-04T09:17:34.780Z,7.50
2018-12-04T09:20:03.447Z,7.50
2018-12-04T09:22:32.159Z,7.60
2018-12-04T09:25:01.109Z,7.60
2018-12-04T09:27:30.508Z,7.60
2018-12-04T09:29:59.456Z,7.70
2018-12-04T09:32:28.221Z,7.80
2018-12-04T09:34:58.988Z,7.80
2018-12-04T09:37:27.684Z,8.00
2018-12-04T09:39:56.386Z,8.00
2018-12-04T09:42:25.112Z,8.10
2018-12-04T09:44:53.979Z,8.20
2018-12-04T09:47:22.663Z,8.30
2018-12-04T09:49:51.360Z,8.30
2018-12-04T09:52:20.422Z,8.20
2018-12-04T09:54:49.227Z,8.30
2018-12-04T09:57:17.814Z,8.40
2018-12-04T09:59:46.571Z,8.40
2018-12-04T10:02:15.332Z,8.50
2018-12-04T10:04:44.036Z,8.80
2018-12-04T10:07:12.854Z,8.80
2018-12-04T10:09:41.582Z,8.80
2018-12-04T10:12:10.239Z,8.90
2018-12-04T10:14:38.942Z,8.80
2018-12-04T10:17:07.658Z,8.80
2018-12-04T10:19:36.238Z,9.00
2018-12-04T10:22:05.013Z,8.90
2018-12-04T10:24:33.645Z,8.90
2018-12-04T10:27:02.182Z,8.90
2018-12-04T10:29:30.720Z,8.70
2018-12-04T10:31:59.176Z,8.70
2018-12-04T10:34:27.735Z,8.70
2018-12-04T10:36:56.176Z,8.70
2018-12-04T10:39:24.676Z,8.70
2018-12-04T10:41:59.824Z,8.90
2018-12-04T10:44:29.297Z,9.00
2018-12-04T10:46:58.019Z,8.30
2018-12-04T10:49:26.528Z,7.90
2018-12-04T10:51:54.954Z,7.40
2018-12-04T10:54:23.416Z,7.20
2018-12-04T10:56:51.901Z,7.30
2018-12-04T10:59:20.380Z,7.30
2018-12-04T11:01:54.244Z,7.20
2018-12-04T11:04:22.752Z,7.20
2018-12-04T11:06:51.222Z,7.20
2018-12-04T11:09:19.673Z,7.00
2018-12-04T11:11:48.195Z,7.00
2018-12-04T11:14:16.667Z,6.90
2018-12-04T11:16:45.102Z,6.80
2018-12-04T11:19:13.544Z,6.80
2018-12-04T11:21:41.967Z,6.90
2018-12-04T11:24:10.389Z,6.90
2018-12-04T11:26:38.912Z,6.80
2018-12-04T11:29:07.359Z,6.80
2018-12-04T11:31:35.891Z,6.80
2018-12-04T11:34:04.326Z,6.70
2018-12-04T11:36:32.794Z,6.70
2018-12-04T11:39:01.232Z,6.80
2018-12-04T11:41:29.651Z,6.80
2018-12-04T11:43:58.299Z,6.90
2018-12-04T11:46:26.740Z,7.00
2018-12-04T11:48:55.188Z,7.00
2018-12-04T11:51:23.632Z,6.90
2018-12-04T11:53:52.046Z,6.70
2018-12-04T11:56:20.511Z,6.80
2018-12-04T11:58:49.083Z,6.70
2018-12-04T12:01:23.013Z,6.60
2018-12-04T12:03:51.464Z,6.40
2018-12-04T12:06:19.967Z,6.40
2018-12-04T12:08:48.465Z,6.30
2018-12-04T12:11:16.975Z,6.40
2018-12-04T12:13:45.631Z,6.40
2018-12-04T12:16:14.080Z,6.40
2018-12-04T12:18:42.760Z,6.50
2018-12-04T12:21:11.278Z,6.40
2018-12-04T12:23:39.702Z,6.20
2018-12-04T12:26:08.183Z,6.40
2018-12-04T12:28:36.613Z,6.30
2018-12-04T12:31:05.051Z,6.20
2018-12-04T12:33:33.515Z,6.30
2018-12-04T12:36:01.942Z,6.20
2018-12-04T12:38:30.388Z,6.20
2018-12-04T12:40:58.843Z,6.10
2018-12-04T12:43:27.272Z,6.30
2018-12-04T12:45:55.710Z,6.20
2018-12-04T12:48:24.144Z,6.10
2018-12-04T12:50:52.633Z,6.20
2018-12-04T12:53:21.188Z,6.30
2018-12-04T12:55:49.726Z,6.30
2018-12-04T12:58:18.416Z,6.40
2018-12-04T13:00:47.665Z,6.30
2018-12-04T13:03:16.464Z,6.30
2018-12-04T13:05:45.066Z,6.40
2018-12-04T13:08:13.671Z,6.30
2018-12-04T13:10:42.335Z,6.30
2018-12-04T13:13:10.976Z,6.30
2018-12-04T13:15:39.561Z,6.10
2018-12-04T13:18:08.033Z,6.10
2018-12-04T13:20:36.724Z,6.10
2018-12-04T13:23:05.444Z,6.10
2018-12-04T13:25:34.306Z,5.90
2018-12-04T13:28:03.146Z,6.00
2018-12-04T13:30:31.705Z,5.90
2018-12-04T13:33:00.433Z,5.90
2018-12-04T13:35:36.715Z,5.90
2018-12-04T13:38:05.235Z,5.90
2018-12-04T13:40:33.777Z,5.90
2018-12-04T13:43:02.346Z,5.90
2018-12-04T13:45:30.912Z,5.80
2018-12-04T13:48:04.131Z,5.90
2018-12-04T13:50:32.776Z,5.90
2018-12-04T13:53:01.319Z,5.80
2018-12-04T13:55:30.849Z,5.80
2018-12-04T13:57:59.598Z,5.80
2018-12-04T14:00:28.281Z,5.60
2018-12-04T14:02:57.006Z,5.60
2018-12-04T14:05:25.670Z,5.70
2018-12-04T14:07:54.202Z,5.70
2018-12-04T14:10:22.853Z,5.70
2018-12-04T14:12:51.512Z,5.60
2018-12-04T14:15:19.998Z,5.70
2018-12-04T14:17:48.640Z,5.70
2018-12-04T14:20:17.223Z,5.60
2018-12-04T14:22:45.872Z,5.70
2018-12-04T14:25:14.408Z,5.80
2018-12-04T14:27:43.038Z,5.90
2018-12-04T14:30:12.935Z,5.90
2018-12-04T14:32:43.427Z,5.80
2018-12-04T14:35:13.150Z,5.90
2018-12-04T14:37:42.761Z,5.80
2018-12-04T14:40:11.615Z,5.80
2018-12-04T14:42:40.333Z,5.80
2018-12-04T14:45:08.872Z,5.70
2018-12-04T14:47:39.009Z,5.70
2018-12-04T14:50:09.656Z,5.80
2018-12-04T14:52:38.356Z,5.80
2018-12-04T14:55:08.048Z,5.70
2018-12-04T14:57:36.608Z,5.70
2018-12-04T15:00:07.484Z,5.60
2018-12-04T15:02:36.347Z,5.60
2018-12-04T15:05:11.685Z,5.80
2018-12-04T15:07:40.414Z,5.80
2018-12-04T15:10:10.618Z,5.70
2018-12-04T15:12:39.120Z,5.70
2018-12-04T15:15:07.734Z,5.80
2018-12-04T15:17:36.279Z,5.80
2018-12-04T15:20:05.797Z,5.80
2018-12-04T15:22:34.482Z,5.80
2018-12-04T15:25:02.991Z,5.90
2018-12-04T15:27:31.435Z,5.90
2018-12-04T15:29:59.893Z,5.90
2018-12-04T15:32:28.376Z,5.80
2018-12-04T15:34:56.822Z,5.80
2018-12-04T15:37:25.480Z,5.80
2018-12-04T15:39:54.186Z,5.90
2018-12-04T15:42:22.693Z,5.90
2018-12-04T15:44:51.203Z,5.90
2018-12-04T15:47:19.663Z,5.90
2018-12-04T15:49:48.111Z,6.00
2018-12-04T15:52:16.539Z,6.00
2018-12-04T15:54:45.150Z,6.00
2018-12-04T15:57:13.723Z,6.00
2018-12-04T15:59:42.160Z,6.00
2018-12-04T16:02:10.634Z,6.00
2018-12-04T16:04:39.079Z,6.20
2018-12-04T16:07:07.562Z,6.20
2018-12-04T16:09:36.057Z,6.20
2018-12-04T16:12:04.517Z,6.20
2018-12-04T16:14:33.000Z,6.30
2018-12-04T16:17:01.425Z,6.30
2018-12-04T16:19:29.869Z,6.20
2018-12-04T16:21:58.336Z,6.20
2018-12-04T16:24:26.815Z,6.20
2018-12-04T16:26:55.284Z,6.20
2018-12-04T16:29:23.708Z,6.40
2018-12-04T16:31:52.169Z,6.40
2018-12-04T16:34:20.616Z,6.30
2018-12-04T16:36:49.063Z,6.20
2018-12-04T16:39:17.507Z,6.20
2018-12-04T16:41:45.979Z,6.10
2018-12-04T16:44:14.455Z,6.10
2018-12-04T16:46:42.955Z,6.10
2018-12-04T16:49:11.433Z,6.10
2018-12-04T16:51:39.887Z,6.10
2018-12-04T16:54:08.331Z,6.30
2018-12-04T16:56:36.839Z,6.10
2018-12-04T16:59:05.633Z,6.00
2018-12-04T17:01:34.201Z,6.00
2018-12-04T17:04:02.692Z,5.80
2018-12-04T17:06:32.158Z,5.90
2018-12-04T17:09:00.636Z,6.00
2018-12-04T17:11:29.107Z,6.00
2018-12-04T17:13:57.518Z,6.00
2018-12-04T17:16:25.991Z,6.00
2018-12-04T17:18:54.467Z,6.00
2018-12-04T17:21:22.978Z,6.00
2018-12-04T17:23:51.418Z,6.00
2018-12-04T17:26:19.961Z,6.00
2018-12-04T17:28:48.588Z,5.90
2018-12-04T17:31:17.089Z,5.80
2018-12-04T17:33:45.562Z,5.70
2018-12-04T17:36:13.991Z,5.70
2018-12-04T17:38:42.445Z,5.80
2018-12-04T17:41:10.971Z,5.70
2018-12-04T17:43:39.592Z,5.80
2018-12-04T17:46:08.067Z,5.90
2018-12-04T17:48:36.526Z,5.80
2018-12-04T17:51:04.975Z,5.70
2018-12-04T17:53:33.704Z,5.70
2018-12-04T17:56:02.176Z,5.70
2018-12-04T17:58:30.638Z,5.70
2018-12-04T18:00:59.312Z,5.80
2018-12-04T18:03:27.815Z,5.70
2018-12-04T18:05:56.304Z,5.80
2018-12-04T18:08:24.786Z,5.80
2018-12-04T18:10:53.287Z,5.70
2018-12-04T18:13:21.747Z,5.70
2018-12-04T18:15:50.223Z,5.60
2018-12-04T18:18:18.885Z,5.50
2018-12-04T18:20:47.444Z,5.60
2018-12-04T18:23:15.934Z,5.60
2018-12-04T18:25:44.551Z,5.70
2018-12-04T18:28:13.059Z,5.70
2018-12-04T18:30:41.659Z,5.70
2018-12-04T18:33:10.107Z,5.80
2018-12-04T18:35:38.564Z,5.70
2018-12-04T18:38:07.015Z,5.70
2018-12-04T18:40:35.491Z,5.70
2018-12-04T18:43:03.961Z,5.70
2018-12-04T18:45:39.867Z,5.70
2018-12-04T18:48:08.391Z,5.70
2018-12-04T18:50:36.833Z,5.70
2018-12-04T18:53:05.308Z,5.70
2018-12-04T18:55:34.448Z,5.70
2018-12-04T18:58:02.994Z,5.80
2018-12-04T19:00:31.555Z,5.80
2018-12-04T19:03:00.064Z,5.70
2018-12-04T19:05:28.556Z,5.70
2018-12-04T19:07:57.183Z,5.70
2018-12-04T19:10:25.696Z,5.70
2018-12-04T19:12:54.326Z,5.70
2018-12-04T19:15:22.794Z,5.70
2018-12-04T19:17:51.277Z,5.70
2018-12-04T19:20:19.758Z,5.60
2018-12-04T19:22:48.257Z,5.60
2018-12-04T19:25:16.855Z,5.60
2018-12-04T19:27:45.302Z,5.60
2018-12-04T19:30:14.430Z,5.50
2018-12-04T19:32:42.964Z,5.60
2018-12-04T19:35:12.984Z,5.60
2018-12-04T19:37:41.862Z,5.50
2018-12-04T19:40:11.840Z,5.50
2018-12-04T19:42:43.870Z,5.50
2018-12-04T19:45:13.033Z,5.50
2018-12-04T19:47:48.122Z,5.50
2018-12-04T19:50:16.954Z,5.50
2018-12-04T19:52:46.043Z,5.40
2018-12-04T19:55:14.545Z,5.40
2018-12-04T19:57:42.967Z,5.30
2018-12-04T20:00:11.487Z,5.40
2018-12-04T20:02:39.917Z,5.40
2018-12-04T20:05:08.379Z,5.30
2018-12-04T20:07:36.854Z,5.30
2018-12-04T20:10:05.383Z,5.30
2018-12-04T20:12:33.931Z,5.40
2018-12-04T20:15:02.560Z,5.30
2018-12-04T20:17:31.041Z,5.40
2018-12-04T20:19:59.617Z,5.40
2018-12-04T20:22:28.081Z,5.50
2018-12-04T20:24:56.594Z,5.50
2018-12-04T20:27:25.048Z,5.50
2018-12-04T20:29:53.525Z,5.40
2018-12-04T20:32:22.088Z,5.40
2018-12-04T20:34:50.592Z,5.30
2018-12-04T20:37:19.224Z,5.40
2018-12-04T20:39:47.683Z,5.40
2018-12-04T20:42:23.071Z,5.30
2018-12-04T20:44:46.619Z,5.30
2018-12-04T20:47:15.269Z,5.30
2018-12-04T20:49:43.728Z,5.30
2018-12-04T20:52:12.305Z,5.30
2018-12-04T20:54:40.771Z,5.20
2018-12-04T20:57:09.284Z,5.10
2018-12-04T20:59:38.604Z,5.10
2018-12-04T21:02:07.350Z,5.20
2018-12-04T21:04:36.197Z,5.10
2018-12-04T21:07:04.641Z,5.10
2018-12-04T21:09:33.124Z,5.10
2018-12-04T21:12:01.552Z,5.10
2018-12-04T21:14:30.021Z,5.20
2018-12-04T21:19:39.001Z,5.10
2018-12-04T21:22:08.184Z,5.20
2018-12-04T21:24:36.728Z,5.10
2018-12-04T21:27:11.692Z,5.10
2018-12-04T21:29:42.949Z,5.10
2018-12-04T21:32:16.846Z,5.10
2018-12-04T21:34:50.729Z,5.10
2018-12-04T21:37:24.576Z,5.10
2018-12-04T21:39:58.579Z,5.30
2018-12-04T21:42:32.416Z,5.30
2018-12-04T21:45:06.364Z,5.20
2018-12-04T21:47:40.195Z,5.20
2018-12-04T21:50:08.797Z,5.20
2018-12-04T21:52:37.306Z,5.20
2018-12-04T21:55:05.954Z,5.30
2018-12-04T21:57:34.415Z,5.20
2018-12-04T22:00:02.920Z,5.20
2018-12-04T22:02:31.590Z,5.10
2018-12-04T22:05:01.458Z,5.20
2018-12-04T22:07:29.986Z,5.20
2018-12-04T22:09:59.652Z,5.20
2018-12-04T22:12:28.103Z,5.20
2018-12-04T22:14:56.569Z,5.20
2018-12-04T22:17:25.133Z,5.20
2018-12-04T22:19:54.129Z,5.20
2018-12-04T22:22:22.612Z,5.30
2018-12-04T22:24:51.317Z,5.20
2018-12-04T22:27:19.816Z,5.10
2018-12-04T22:29:48.327Z,5.10
2018-12-04T22:32:16.961Z,5.20
2018-12-04T22:34:45.568Z,5.20
2018-12-04T22:37:14.109Z,5.10
2018-12-04T22:39:42.590Z,5.10
2018-12-04T22:42:11.120Z,5.00
2018-12-04T22:44:39.595Z,5.10
2018-12-04T22:47:08.092Z,5.00
2018-12-04T22:49:36.573Z,5.00
2018-12-04T22:52:05.058Z,5.00
2018-12-04T22:54:33.618Z,5.00
2018-12-04T22:57:02.124Z,5.00
2018-12-04T22:59:30.595Z,5.00
2018-12-04T23:01:59.101Z,4.90
2018-12-04T23:04:27.557Z,4.90
2018-12-04T23:06:56.043Z,4.90
2018-12-04T23:09:24.513Z,4.90
2018-12-04T23:11:52.981Z,4.90
2018-12-04T23:14:21.496Z,4.90
2018-12-04T23:16:49.939Z,4.90
2018-12-04T23:19:18.431Z,4.90
2018-12-04T23:21:46.909Z,4.90
2018-12-04T23:24:15.330Z,4.90
2018-12-04T23:26:43.810Z,4.90
2018-12-04T23:29:12.309Z,5.00
2018-12-04T23:31:40.823Z,5.00
2018-12-04T23:34:09.297Z,5.00
2018-12-04T23:36:37.836Z,5.00
2018-12-04T23:39:07.831Z,5.00
2018-12-04T23:41:36.518Z,5.00
2018-12-04T23:44:05.065Z,5.00
2018-12-04T23:46:33.523Z,5.00
2018-12-04T23:49:01.977Z,5.00
2018-12-04T23:51:30.461Z,5.00
2018-12-04T23:53:58.915Z,5.00
2018-12-04T23:56:27.442Z,5.00
2018-12-04T23:58:55.875Z,5.00
